createdAt,value
2023-05-02T00:01:33.758Z,21.30
2023-05-02T00:04:06.109Z,20.40
2023-05-02T00:06:36.054Z,21.30
2023-05-02T00:09:06.582Z,20.80
2023-05-02T00:11:36.088Z,21.10
2023-05-02T00:14:05.641Z,23.70
2023-05-02T00:16:35.170Z,21.63
2023-05-02T00:19:08.181Z,24.17
2023-05-02T00:21:37.688Z,24.97
2023-05-02T00:24:08.074Z,23.50
2023-05-02T00:26:37.937Z,24.27
2023-05-02T00:29:08.123Z,23.63
2023-05-02T00:31:37.788Z,25.80
2023-05-02T00:34:09.861Z,24.23
2023-05-02T00:36:39.368Z,25.10
2023-05-02T00:39:08.890Z,26.17
2023-05-02T00:41:38.441Z,24.50
2023-05-02T00:44:08.632Z,25.37
2023-05-02T00:46:38.490Z,24.47
2023-05-02T00:49:10.786Z,24.50
2023-05-02T00:51:40.391Z,23.10
2023-05-02T00:54:11.071Z,22.90
2023-05-02T00:56:40.536Z,20.63
2023-05-02T00:59:11.684Z,24.03
2023-05-02T01:01:50.266Z,22.47
2023-05-02T01:04:34.812Z,20.60
2023-05-02T01:07:13.345Z,20.23
2023-05-02T01:09:48.843Z,20.00
2023-05-02T01:12:23.516Z,19.87
2023-05-02T01:14:56.949Z,18.10
2023-05-02T01:17:30.110Z,15.33
2023-05-02T01:20:03.741Z,16.97
2023-05-02T01:22:34.326Z,17.83
2023-05-02T01:25:10.625Z,18.43
2023-05-02T01:27:46.534Z,18.20
2023-05-02T01:30:20.778Z,18.70
2023-05-02T01:32:50.756Z,18.00
2023-05-02T01:35:21.521Z,16.80
2023-05-02T01:37:51.659Z,16.57
2023-05-02T01:40:23.382Z,15.77
2023-05-02T01:42:54.285Z,16.80
2023-05-02T01:45:27.768Z,16.10
2023-05-02T01:47:57.739Z,15.47
2023-05-02T01:50:28.707Z,16.13
2023-05-02T01:52:58.528Z,17.10
2023-05-02T01:55:29.147Z,16.23
2023-05-02T01:57:59.553Z,17.10
2023-05-02T02:00:32.514Z,19.53
2023-05-02T02:03:02.666Z,17.27
2023-05-02T02:05:32.707Z,16.80
2023-05-02T02:08:02.218Z,16.50
2023-05-02T02:10:35.253Z,15.80
2023-05-02T02:13:10.382Z,15.97
2023-05-02T02:15:42.932Z,16.03
2023-05-02T02:18:16.135Z,14.63
2023-05-02T02:20:47.093Z,12.20
2023-05-02T02:23:18.055Z,10.40
2023-05-02T02:25:48.250Z,10.83
2023-05-02T02:28:17.957Z,10.70
2023-05-02T02:30:50.362Z,11.33
2023-05-02T02:33:20.500Z,13.03
2023-05-02T02:35:54.327Z,8.63
2023-05-02T02:38:32.035Z,6.13
2023-05-02T02:41:06.402Z,4.67
2023-05-02T02:43:39.458Z,7.00
2023-05-02T02:46:19.026Z,6.67
2023-05-02T02:48:55.752Z,4.93
2023-05-02T02:51:32.067Z,12.67
2023-05-02T02:54:15.437Z,7.80
2023-05-02T02:57:01.721Z,5.83
2023-05-02T02:59:33.676Z,4.13
2023-05-02T03:02:10.418Z,5.20
2023-05-02T03:04:42.343Z,4.90
2023-05-02T03:07:12.326Z,5.43
2023-05-02T03:09:45.535Z,7.67
2023-05-02T03:12:15.471Z,4.90
2023-05-02T03:14:45.344Z,5.43
2023-05-02T03:17:17.483Z,5.13
2023-05-02T03:19:47.417Z,6.83
2023-05-02T03:22:16.984Z,4.83
2023-05-02T03:24:46.488Z,3.80
2023-05-02T03:27:15.948Z,4.20
2023-05-02T03:29:45.606Z,5.77
2023-05-02T03:32:17.638Z,4.83
2023-05-02T03:34:47.255Z,8.23
2023-05-02T03:37:16.800Z,4.57
2023-05-02T03:39:47.036Z,8.27
2023-05-02T03:42:16.546Z,4.10
2023-05-02T03:44:46.049Z,5.03
2023-05-02T03:47:18.188Z,4.53
2023-05-02T03:49:47.687Z,4.50
2023-05-02T03:52:17.156Z,4.97
2023-05-02T03:54:46.898Z,5.03
2023-05-02T03:57:16.367Z,6.20
2023-05-02T03:59:45.983Z,5.40
2023-05-02T04:02:18.481Z,11.33
2023-05-02T04:04:48.153Z,5.83
2023-05-02T04:07:19.628Z,19.20
2023-05-02T04:09:49.510Z,8.40
2023-05-02T04:12:19.082Z,12.27
2023-05-02T04:14:48.625Z,7.90
2023-05-02T04:17:20.948Z,4.60
2023-05-02T04:19:51.559Z,4.20
2023-05-02T04:22:21.164Z,4.50
2023-05-02T04:24:50.685Z,4.53
2023-05-02T04:27:20.219Z,4.80
2023-05-02T04:29:51.137Z,5.10
2023-05-02T04:32:23.377Z,4.40
2023-05-02T04:34:53.144Z,8.57
2023-05-02T04:37:22.658Z,5.23
2023-05-02T04:39:52.180Z,7.17
2023-05-02T04:42:21.709Z,7.00
2023-05-02T04:44:51.836Z,4.73
2023-05-02T04:47:23.897Z,5.80
2023-05-02T04:49:53.357Z,3.93
2023-05-02T04:52:22.901Z,5.50
2023-05-02T04:54:52.478Z,3.70
2023-05-02T04:57:24.741Z,3.30
2023-05-02T04:59:54.484Z,3.73
2023-05-02T05:02:26.812Z,3.37
2023-05-02T05:04:56.492Z,4.30
2023-05-02T05:07:26.235Z,5.67
2023-05-02T05:09:55.747Z,3.53
2023-05-02T05:12:25.324Z,4.00
2023-05-02T05:14:54.826Z,5.90
2023-05-02T05:17:26.937Z,4.50
2023-05-02T05:19:56.756Z,4.90
2023-05-02T05:22:26.261Z,3.37
2023-05-02T05:24:56.565Z,3.40
2023-05-02T05:27:26.039Z,6.37
2023-05-02T05:29:55.652Z,3.40
2023-05-02T05:32:27.886Z,3.13
2023-05-02T05:34:57.581Z,4.00
2023-05-02T05:37:27.043Z,3.50
2023-05-02T05:39:56.525Z,4.73
2023-05-02T05:42:26.046Z,5.50
2023-05-02T05:44:55.583Z,4.60
2023-05-02T05:47:28.088Z,4.40
2023-05-02T05:49:58.293Z,5.37
2023-05-02T05:52:28.092Z,3.50
2023-05-02T05:54:58.326Z,3.20
2023-05-02T05:57:27.808Z,3.70
2023-05-02T05:59:57.541Z,3.33
2023-05-02T06:02:30.216Z,3.03
2023-05-02T06:04:59.847Z,3.20
2023-05-02T06:07:29.651Z,2.93
2023-05-02T06:09:59.592Z,3.30
2023-05-02T06:12:29.273Z,3.30
2023-05-02T06:14:58.856Z,3.53
2023-05-02T06:17:31.467Z,4.20
2023-05-02T06:20:01.291Z,3.33
2023-05-02T06:22:31.076Z,4.30
2023-05-02T06:25:01.045Z,2.80
2023-05-02T06:27:32.956Z,6.50
2023-05-02T06:30:03.827Z,4.40
2023-05-02T06:32:36.348Z,9.13
2023-05-02T06:35:06.083Z,5.50
2023-05-02T06:37:37.156Z,5.13
2023-05-02T06:40:07.628Z,3.40
2023-05-02T06:42:37.199Z,3.17
2023-05-02T06:45:07.902Z,3.60
2023-05-02T06:47:40.075Z,3.83
2023-05-02T06:50:11.655Z,3.57
2023-05-02T06:52:41.155Z,3.47
2023-05-02T06:55:11.645Z,6.47
2023-05-02T06:57:41.459Z,2.60
2023-05-02T07:00:13.082Z,3.30
2023-05-02T07:02:45.176Z,3.83
2023-05-02T07:05:15.796Z,3.40
2023-05-02T07:07:45.534Z,5.90
2023-05-02T07:10:15.724Z,6.20
2023-05-02T07:12:45.252Z,2.23
2023-05-02T07:15:16.650Z,4.57
2023-05-02T07:17:49.771Z,9.70
2023-05-02T07:20:20.076Z,14.00
2023-05-02T07:22:49.814Z,2.40
2023-05-02T07:25:19.512Z,13.63
2023-05-02T07:27:49.098Z,3.13
2023-05-02T07:30:18.712Z,3.43
2023-05-02T07:32:50.850Z,3.13
2023-05-02T07:35:23.226Z,2.43
2023-05-02T07:37:52.989Z,3.40
2023-05-02T07:40:23.061Z,6.20
2023-05-02T07:42:53.153Z,2.60
2023-05-02T07:45:22.995Z,1.90
2023-05-02T07:47:55.172Z,3.53
2023-05-02T07:50:24.758Z,2.77
2023-05-02T07:52:54.255Z,2.27
2023-05-02T07:55:26.632Z,4.40
2023-05-02T07:57:56.151Z,2.67
2023-05-02T08:00:25.676Z,1.90
2023-05-02T08:02:57.826Z,3.37
2023-05-02T08:05:27.748Z,2.73
2023-05-02T08:07:57.232Z,1.80
2023-05-02T08:10:27.446Z,2.23
2023-05-02T08:12:57.054Z,2.17
2023-05-02T08:15:26.669Z,1.57
2023-05-02T08:17:59.964Z,3.70
2023-05-02T08:20:29.856Z,2.10
2023-05-02T08:23:00.078Z,2.73
2023-05-02T08:25:30.604Z,1.97
2023-05-02T08:28:00.137Z,1.93
2023-05-02T08:30:29.656Z,2.00
2023-05-02T08:33:01.798Z,2.40
2023-05-02T08:35:32.112Z,1.47
2023-05-02T08:38:01.630Z,4.53
2023-05-02T08:40:40.977Z,7.20
2023-05-02T08:43:11.805Z,2.27
2023-05-02T08:45:43.163Z,5.50
2023-05-02T08:48:17.164Z,3.60
2023-05-02T08:50:48.620Z,2.20
2023-05-02T08:53:19.957Z,2.40
2023-05-02T08:55:53.357Z,4.73
2023-05-02T08:58:23.002Z,4.20
2023-05-02T09:00:53.249Z,1.93
2023-05-02T09:03:32.407Z,2.20
2023-05-02T09:06:09.936Z,2.13
2023-05-02T09:08:40.470Z,1.70
2023-05-02T09:11:11.997Z,2.27
2023-05-02T09:13:43.041Z,2.43
2023-05-02T09:16:14.160Z,2.13
2023-05-02T09:18:47.562Z,2.50
2023-05-02T09:21:20.701Z,2.43
2023-05-02T09:23:53.019Z,2.10
2023-05-02T09:26:24.124Z,1.90
2023-05-02T09:28:55.291Z,1.77
2023-05-02T09:34:11.227Z,1.80
2023-05-02T09:36:42.710Z,2.33
2023-05-02T09:39:14.011Z,2.00
2023-05-02T09:41:44.477Z,2.07
2023-05-02T09:44:14.896Z,3.73
2023-05-02T09:46:45.364Z,1.70
2023-05-02T09:49:19.212Z,7.20
2023-05-02T09:51:49.990Z,4.90
2023-05-02T09:54:38.157Z,5.37
2023-05-02T09:57:08.101Z,1.77
2023-05-02T09:59:37.665Z,1.90
2023-05-02T10:02:10.578Z,2.30
2023-05-02T10:04:43.142Z,2.10
2023-05-02T10:07:13.656Z,26.43
2023-05-02T10:09:46.733Z,2.10
2023-05-02T10:12:18.062Z,2.07
2023-05-02T10:14:53.640Z,1.90
2023-05-02T10:17:26.216Z,2.10
2023-05-02T10:20:00.644Z,2.30
2023-05-02T10:22:31.287Z,10.90
2023-05-02T10:25:02.274Z,5.30
2023-05-02T10:27:33.188Z,5.50
2023-05-02T10:30:04.864Z,5.70
2023-05-02T10:32:36.127Z,7.70
2023-05-02T10:35:09.562Z,3.00
2023-05-02T10:37:40.185Z,5.23
2023-05-02T10:40:13.760Z,2.40
2023-05-02T10:42:46.362Z,1.70
2023-05-02T10:45:16.496Z,2.40
2023-05-02T10:47:46.493Z,4.80
2023-05-02T10:50:19.795Z,1.77
2023-05-02T10:52:49.515Z,2.30
2023-05-02T10:55:20.679Z,2.03
2023-05-02T10:58:24.104Z,2.97
2023-05-02T11:00:54.119Z,3.00
2023-05-02T11:03:53.741Z,1.93
2023-05-02T11:06:26.283Z,1.80
2023-05-02T11:08:56.126Z,2.07
2023-05-02T11:11:44.258Z,1.70
2023-05-02T11:14:14.833Z,2.00
2023-05-02T11:17:08.618Z,1.90
2023-05-02T11:20:08.800Z,1.77
2023-05-02T11:22:41.822Z,1.63
2023-05-02T11:25:31.867Z,3.90
2023-05-02T11:28:01.395Z,10.23
2023-05-02T11:30:48.852Z,1.60
2023-05-02T11:33:22.192Z,1.93
2023-05-02T11:35:51.996Z,1.10
2023-05-02T11:38:27.820Z,1.40
2023-05-02T11:41:03.205Z,2.00
2023-05-02T11:43:33.024Z,1.23
2023-05-02T11:46:06.100Z,2.07
2023-05-02T11:48:35.949Z,2.70
2023-05-02T11:51:07.425Z,2.20
2023-05-02T11:53:43.506Z,13.03
2023-05-02T11:56:13.372Z,2.00
2023-05-02T11:58:44.442Z,1.80
2023-05-02T12:01:16.176Z,1.73
2023-05-02T12:03:46.251Z,2.73
2023-05-02T12:06:19.000Z,2.47
2023-05-02T12:08:55.725Z,2.00
2023-05-02T12:11:26.515Z,6.13
2023-05-02T12:13:56.069Z,1.90
2023-05-02T12:16:25.694Z,1.80
2023-05-02T12:18:58.098Z,1.40
2023-05-02T12:21:28.616Z,5.30
2023-05-02T12:24:01.031Z,4.03
2023-05-02T12:26:32.756Z,3.73
2023-05-02T12:29:02.955Z,2.73
2023-05-02T12:31:33.505Z,1.97
2023-05-02T12:34:03.433Z,1.40
2023-05-02T12:36:33.661Z,1.50
2023-05-02T12:39:06.176Z,1.70
2023-05-02T12:41:37.199Z,1.40
2023-05-02T12:44:08.012Z,4.70
2023-05-02T12:46:37.735Z,2.20
2023-05-02T12:49:09.845Z,1.97
2023-05-02T12:51:39.855Z,1.87
2023-05-02T12:54:22.596Z,1.90
2023-05-02T12:56:52.369Z,2.07
2023-05-02T12:59:30.618Z,1.63
2023-05-02T13:02:00.220Z,1.73
2023-05-02T13:04:40.275Z,2.00
2023-05-02T13:07:09.827Z,2.00
2023-05-02T13:09:42.100Z,1.87
2023-05-02T13:12:11.635Z,1.87
2023-05-02T13:14:41.158Z,4.30
2023-05-02T13:17:11.453Z,25.40
2023-05-02T13:19:47.572Z,11.83
2023-05-02T13:22:23.762Z,5.70
2023-05-02T13:24:56.243Z,4.13
2023-05-02T13:27:26.212Z,1.50
2023-05-02T13:29:56.148Z,2.60
2023-05-02T13:32:25.922Z,1.50
2023-05-02T13:34:55.444Z,2.27
2023-05-02T13:37:25.080Z,2.27
2023-05-02T13:39:57.201Z,2.60
2023-05-02T13:42:26.943Z,2.70
2023-05-02T13:44:56.486Z,1.90
2023-05-02T13:47:26.566Z,2.10
2023-05-02T13:49:56.253Z,2.57
2023-05-02T13:52:25.767Z,1.80
2023-05-02T13:54:57.897Z,3.53
2023-05-02T13:57:27.467Z,2.90
2023-05-02T13:59:57.016Z,3.40
2023-05-02T14:02:26.776Z,2.00
2023-05-02T14:04:58.550Z,1.50
2023-05-02T14:07:28.047Z,2.03
2023-05-02T14:10:00.433Z,1.47
2023-05-02T14:12:30.204Z,1.77
2023-05-02T14:14:59.778Z,2.60
2023-05-02T14:17:29.346Z,1.70
2023-05-02T14:19:58.919Z,1.63
2023-05-02T14:22:28.806Z,1.57
2023-05-02T14:25:00.906Z,1.70
2023-05-02T14:27:30.621Z,1.97
2023-05-02T14:30:00.522Z,3.07
2023-05-02T14:32:30.474Z,1.40
2023-05-02T14:35:00.023Z,1.93
2023-05-02T14:37:29.539Z,1.67
2023-05-02T14:40:02.367Z,1.50
2023-05-02T14:42:32.189Z,1.77
2023-05-02T14:45:02.519Z,1.40
2023-05-02T14:47:32.844Z,1.97
2023-05-02T14:50:02.701Z,2.37
2023-05-02T14:52:32.476Z,1.70
2023-05-02T14:55:05.056Z,1.80
2023-05-02T14:57:34.911Z,1.70
2023-05-02T15:00:05.101Z,2.00
2023-05-02T15:02:35.041Z,2.07
2023-05-02T15:05:05.702Z,28.53
2023-05-02T15:07:35.178Z,11.63
2023-05-02T15:10:08.108Z,25.23
2023-05-02T15:12:37.796Z,18.97
2023-05-02T15:15:09.540Z,2.93
2023-05-02T15:17:39.412Z,1.90
2023-05-02T15:20:10.606Z,24.13
2023-05-02T15:22:40.177Z,15.53
2023-05-02T15:25:13.039Z,6.40
2023-05-02T15:27:42.746Z,1.73
2023-05-02T15:30:14.273Z,5.57
2023-05-02T15:32:44.959Z,5.20
2023-05-02T15:35:14.472Z,2.20
2023-05-02T15:37:43.971Z,5.23
2023-05-02T15:40:17.360Z,1.90
2023-05-02T15:42:47.177Z,1.90
2023-05-02T15:45:16.902Z,1.57
2023-05-02T15:47:46.962Z,2.40
2023-05-02T15:50:16.998Z,2.07
2023-05-02T15:52:46.551Z,14.50
2023-05-02T15:55:18.929Z,8.93
2023-05-02T15:57:51.860Z,2.07
2023-05-02T16:00:22.107Z,1.90
2023-05-02T16:02:51.633Z,1.50
2023-05-02T16:05:21.180Z,1.80
2023-05-02T16:07:51.214Z,1.80
2023-05-02T16:10:23.767Z,3.33
2023-05-02T16:12:53.348Z,1.20
2023-05-02T16:15:22.878Z,2.13
2023-05-02T16:17:53.071Z,1.20
2023-05-02T16:20:22.770Z,1.70
2023-05-02T16:22:52.564Z,2.33
2023-05-02T16:25:24.818Z,1.70
2023-05-02T16:27:54.292Z,1.60
2023-05-02T16:30:24.126Z,1.60
2023-05-02T16:32:53.717Z,3.90
2023-05-02T16:35:23.697Z,11.30
2023-05-02T16:37:53.193Z,10.70
2023-05-02T16:40:27.498Z,44.30
2023-05-02T16:42:57.902Z,1.70
2023-05-02T16:45:27.608Z,3.90
2023-05-02T16:47:57.216Z,3.17
2023-05-02T16:50:26.960Z,2.07
2023-05-02T16:52:56.490Z,1.70
2023-05-02T16:55:29.005Z,2.80
2023-05-02T16:57:58.475Z,3.43
2023-05-02T17:00:28.120Z,5.60
2023-05-02T17:02:57.696Z,3.07
2023-05-02T17:05:27.313Z,5.80
2023-05-02T17:07:56.785Z,2.17
2023-05-02T17:10:29.070Z,2.30
2023-05-02T17:12:59.360Z,5.03
2023-05-02T17:15:29.215Z,2.13
2023-05-02T17:17:58.686Z,2.23
2023-05-02T17:20:28.360Z,2.63
2023-05-02T17:22:57.901Z,3.33
2023-05-02T17:25:29.969Z,2.07
2023-05-02T17:27:59.453Z,1.90
2023-05-02T17:30:29.547Z,1.60
2023-05-02T17:32:59.201Z,1.40
2023-05-02T17:35:28.789Z,2.07
2023-05-02T17:37:58.346Z,1.77
2023-05-02T17:40:30.509Z,12.03
2023-05-02T17:43:01.688Z,4.37
2023-05-02T17:45:31.706Z,11.30
2023-05-02T17:48:03.273Z,1.60
2023-05-02T17:50:34.060Z,6.50
2023-05-02T17:53:04.870Z,6.43
2023-05-02T17:55:39.708Z,4.17
2023-05-02T17:58:09.317Z,13.03
2023-05-02T18:00:38.769Z,2.00
2023-05-02T18:03:08.364Z,1.70
2023-05-02T18:05:44.241Z,1.37
2023-05-02T18:08:13.759Z,1.80
2023-05-02T18:10:45.822Z,1.50
2023-05-02T18:13:15.515Z,1.60
2023-05-02T18:15:45.355Z,1.40
2023-05-02T18:18:15.029Z,1.93
2023-05-02T18:20:44.733Z,1.50
2023-05-02T18:23:14.233Z,1.90
2023-05-02T18:25:46.443Z,1.60
2023-05-02T18:28:16.070Z,1.47
2023-05-02T18:30:45.671Z,1.50
2023-05-02T18:33:15.296Z,1.80
2023-05-02T18:35:49.219Z,3.10
2023-05-02T18:38:20.421Z,1.60
2023-05-02T18:40:55.653Z,2.30
2023-05-02T18:43:25.149Z,1.70
2023-05-02T18:45:54.656Z,1.73
2023-05-02T18:48:24.168Z,23.87
2023-05-02T18:50:54.043Z,2.10
2023-05-02T18:53:26.221Z,1.50
2023-05-02T18:55:58.745Z,1.63
2023-05-02T18:58:28.258Z,1.90
2023-05-02T19:00:57.951Z,1.53
2023-05-02T19:03:27.769Z,1.47
2023-05-02T19:05:57.895Z,1.80
2023-05-02T19:08:27.677Z,1.97
2023-05-02T19:10:59.835Z,1.27
2023-05-02T19:13:29.676Z,2.37
2023-05-02T19:15:59.219Z,1.13
2023-05-02T19:18:28.764Z,1.13
2023-05-02T19:20:58.728Z,1.27
2023-05-02T19:23:31.515Z,1.20
2023-05-02T19:26:03.628Z,1.50
2023-05-02T19:28:33.226Z,1.90
2023-05-02T19:31:02.723Z,1.53
2023-05-02T19:33:32.232Z,1.13
2023-05-02T19:36:01.756Z,1.73
2023-05-02T19:38:31.228Z,1.60
2023-05-02T19:41:03.430Z,2.10
2023-05-02T19:43:33.120Z,1.73
2023-05-02T19:46:02.694Z,2.00
2023-05-02T19:48:32.183Z,1.70
2023-05-02T19:51:04.116Z,2.00
2023-05-02T19:53:33.669Z,2.10
2023-05-02T19:56:07.367Z,1.63
2023-05-02T19:58:37.299Z,1.63
2023-05-02T20:01:06.909Z,1.40
2023-05-02T20:03:36.926Z,1.80
2023-05-02T20:06:06.887Z,1.53
2023-05-02T20:08:36.423Z,4.70
2023-05-02T20:11:08.486Z,1.77
2023-05-02T20:13:37.971Z,1.60
2023-05-02T20:16:07.867Z,1.33
2023-05-02T20:18:37.426Z,1.47
2023-05-02T20:21:06.998Z,1.40
2023-05-02T20:23:36.456Z,1.50
2023-05-02T20:26:08.783Z,1.60
2023-05-02T20:28:38.382Z,1.47
2023-05-02T20:31:08.163Z,1.57
2023-05-02T20:33:45.181Z,1.43
2023-05-02T20:36:17.434Z,2.03
2023-05-02T20:38:47.992Z,1.53
2023-05-02T20:41:20.397Z,1.23
2023-05-02T20:43:49.871Z,1.77
2023-05-02T20:46:20.218Z,1.67
2023-05-02T20:48:50.030Z,1.50
2023-05-02T20:51:19.487Z,1.80
2023-05-02T20:53:49.135Z,1.83
2023-05-02T20:56:21.457Z,1.80
2023-05-02T20:58:50.969Z,2.40
2023-05-02T21:01:20.571Z,2.30
2023-05-02T21:03:50.377Z,1.60
2023-05-02T21:06:21.645Z,1.70
2023-05-02T21:08:51.222Z,2.60
2023-05-02T21:11:23.292Z,2.20
2023-05-02T21:13:52.855Z,2.00
2023-05-02T21:16:23.505Z,3.10
2023-05-02T21:18:53.153Z,2.33
2023-05-02T21:21:22.690Z,2.77
2023-05-02T21:23:52.333Z,1.80
2023-05-02T21:26:25.917Z,1.60
2023-05-02T21:28:55.531Z,2.10
2023-05-02T21:31:25.062Z,1.70
2023-05-02T21:33:54.633Z,1.67
2023-05-02T21:36:24.127Z,1.83
2023-05-02T21:38:54.163Z,1.80
2023-05-02T21:41:26.269Z,1.97
2023-05-02T21:43:55.747Z,2.37
2023-05-02T21:46:27.534Z,2.03
2023-05-02T21:48:57.052Z,2.07
2023-05-02T21:51:26.550Z,2.17
2023-05-02T21:53:56.331Z,2.17
2023-05-02T21:56:28.543Z,2.20
2023-05-02T21:58:57.994Z,2.80
2023-05-02T22:01:27.680Z,2.70
2023-05-02T22:04:00.890Z,2.37
2023-05-02T22:06:30.426Z,3.13
2023-05-02T22:08:59.961Z,2.30
2023-05-02T22:11:33.537Z,2.70
2023-05-02T22:14:03.032Z,3.33
2023-05-02T22:16:32.657Z,2.90
2023-05-02T22:19:02.333Z,2.53
2023-05-02T22:21:32.093Z,2.30
2023-05-02T22:24:01.769Z,2.83
2023-05-02T22:26:33.813Z,3.20
2023-05-02T22:29:03.270Z,2.80
2023-05-02T22:31:32.811Z,3.00
2023-05-02T22:34:02.291Z,3.03
2023-05-02T22:36:31.777Z,3.07
2023-05-02T22:39:01.354Z,2.90
2023-05-02T22:41:33.527Z,2.70
2023-05-02T22:44:03.088Z,3.33
2023-05-02T22:46:32.625Z,2.87
2023-05-02T22:49:03.052Z,3.00
2023-05-02T22:51:32.728Z,2.90
2023-05-02T22:54:04.868Z,3.37
2023-05-02T22:56:37.095Z,3.03
2023-05-02T22:59:06.559Z,3.23
2023-05-02T23:01:36.399Z,4.33
2023-05-02T23:04:06.120Z,2.93
2023-05-02T23:06:35.629Z,3.13
2023-05-02T23:09:05.261Z,2.83
2023-05-02T23:11:37.885Z,3.10
2023-05-02T23:14:07.363Z,3.50
2023-05-02T23:16:37.099Z,3.90
2023-05-02T23:19:06.625Z,3.77
2023-05-02T23:21:36.295Z,3.80
2023-05-02T23:24:05.892Z,4.83
2023-05-02T23:26:37.997Z,5.27
2023-05-02T23:29:08.474Z,5.10
2023-05-02T23:31:38.083Z,5.23
2023-05-02T23:34:07.739Z,4.73
2023-05-02T23:36:37.400Z,4.70
2023-05-02T23:39:07.652Z,7.20
2023-05-02T23:41:39.782Z,7.07
2023-05-02T23:44:09.511Z,4.77
2023-05-02T23:46:41.981Z,5.93
2023-05-02T23:49:11.493Z,5.03
2023-05-02T23:51:41.821Z,5.00
2023-05-02T23:54:11.291Z,4.37
2023-05-02T23:56:46.311Z,4.60
2023-05-02T23:59:15.814Z,4.50
